Terminal Aerodrome Forecast
Issued by NWS

Home | Current Version | Previous Version | Text Only | Print | Product List | Glossary On
Versions: 1 2 3 4 5 6 7 8 9 10 11 12
000
FTUS45 KABQ 210528
TAFGUP
TAF
KGUP 210528Z 2106/2206 23010KT P6SM SKC
     FM211500 23015G25KT P6SM SKC
     FM211830 23022G36KT P6SM FEW090
     FM220200 22011KT P6SM FEW090=

USA.gov is the U.S. government's official web portal to all federal, state and local government web resources and services.